createdAt,value
2019-02-18T06:25:19.039Z,1014.99
2019-02-18T06:26:19.007Z,1015.05
2019-02-18T06:27:18.996Z,1014.96
2019-02-18T06:28:19.004Z,1014.98
2019-02-18T06:29:18.974Z,1014.95
2019-02-18T06:30:18.964Z,1014.95
2019-02-18T06:31:18.963Z,1014.96
2019-02-18T06:32:18.947Z,1014.91
2019-02-18T06:33:18.951Z,1014.94
2019-02-18T06:34:18.921Z,1014.91
2019-02-18T06:35:25.957Z,1014.93
2019-02-18T06:36:18.905Z,1014.96
2019-02-18T06:37:18.896Z,1014.88
2019-02-18T06:38:18.904Z,1014.93
2019-02-18T06:39:18.911Z,1014.89
2019-02-18T06:40:18.874Z,1014.85
2019-02-18T06:41:18.863Z,1014.85
2019-02-18T06:42:18.839Z,1014.90
2019-02-18T06:43:18.862Z,1014.88
2019-02-18T06:44:18.863Z,1014.87
2019-02-18T06:45:18.806Z,1014.90
2019-02-18T06:46:18.798Z,1014.96
2019-02-18T06:47:18.791Z,1014.93
2019-02-18T06:48:18.774Z,1014.98
2019-02-18T06:49:18.789Z,1015.03
2019-02-18T06:50:18.752Z,1015.06
2019-02-18T06:51:18.749Z,1015.07
2019-02-18T06:52:18.734Z,1015.03
2019-02-18T06:53:18.723Z,1015.01
2019-02-18T06:54:18.730Z,1014.98
2019-02-18T06:55:18.700Z,1015.02
2019-02-18T06:56:18.694Z,1014.97
2019-02-18T06:57:18.713Z,1014.95
2019-02-18T06:58:18.669Z,1014.96
2019-02-18T06:59:18.685Z,1014.92
2019-02-18T07:00:18.647Z,1014.91
2019-02-18T07:01:18.650Z,1014.94
2019-02-18T07:02:18.626Z,1014.95
2019-02-18T07:03:18.734Z,1014.94
2019-02-18T07:04:18.623Z,1014.91
2019-02-18T07:05:18.594Z,1014.89
2019-02-18T07:06:18.599Z,1014.91
2019-02-18T07:07:18.583Z,1014.94
2019-02-18T07:08:18.565Z,1014.97
2019-02-18T07:09:18.590Z,1015.00
2019-02-18T07:10:18.543Z,1014.98
2019-02-18T07:11:18.543Z,1014.96
2019-02-18T07:12:19.275Z,1014.97
2019-02-18T07:13:18.516Z,1014.96
2019-02-18T07:14:18.520Z,1014.92
2019-02-18T07:15:18.491Z,1014.97
2019-02-18T07:16:18.486Z,1014.98
2019-02-18T07:17:18.476Z,1015.00
2019-02-18T07:18:18.467Z,1015.00
2019-02-18T07:19:18.471Z,1014.96
2019-02-18T07:20:18.439Z,1015.02
2019-02-18T07:21:18.433Z,1015.03
2019-02-18T07:22:18.635Z,1015.03
2019-02-18T07:23:18.405Z,1015.07
2019-02-18T07:24:18.411Z,1015.02
2019-02-18T07:25:18.411Z,1014.98
2019-02-18T07:26:18.378Z,1014.99
2019-02-18T07:27:18.365Z,1014.96
2019-02-18T07:28:18.354Z,1014.96
2019-02-18T07:29:18.343Z,1014.95
2019-02-18T07:30:18.351Z,1014.95
2019-02-18T07:31:18.329Z,1014.94
2019-02-18T07:32:18.313Z,1014.98
2019-02-18T07:33:18.304Z,1014.90
2019-02-18T07:34:18.299Z,1014.93
2019-02-18T07:35:18.300Z,1014.96
2019-02-18T07:36:18.271Z,1014.93
2019-02-18T07:37:18.304Z,1014.94
2019-02-18T07:38:18.251Z,1014.99
2019-02-18T07:39:18.243Z,1014.96
2019-02-18T07:40:18.248Z,1014.96
2019-02-18T07:41:18.218Z,1014.96
2019-02-18T07:42:18.212Z,1014.93
2019-02-18T07:43:18.214Z,1014.94
2019-02-18T07:44:18.189Z,1014.93
2019-02-18T07:45:18.194Z,1014.93
2019-02-18T07:46:18.164Z,1014.93
2019-02-18T07:47:18.170Z,1014.95
2019-02-18T07:48:18.157Z,1014.92
2019-02-18T07:49:18.135Z,1014.95
2019-02-18T07:50:20.987Z,1014.98
2019-02-18T07:51:18.114Z,1014.97
2019-02-18T07:52:18.102Z,1014.97
2019-02-18T07:53:18.092Z,1014.97
2019-02-18T07:54:18.087Z,1014.92
2019-02-18T07:55:18.100Z,1014.92
2019-02-18T07:56:18.061Z,1014.99
2019-02-18T07:57:18.051Z,1014.95
2019-02-18T07:58:18.056Z,1014.88
2019-02-18T07:59:18.029Z,1014.93
2019-02-18T08:00:18.027Z,1014.91
2019-02-18T08:01:18.025Z,1014.93
2019-02-18T08:02:18.011Z,1014.95
2019-02-18T08:03:17.992Z,1014.92
2019-02-18T08:04:17.985Z,1014.95
2019-02-18T08:05:17.970Z,1014.93
2019-02-18T08:06:17.986Z,1014.93
2019-02-18T08:07:17.982Z,1014.96
2019-02-18T08:08:17.939Z,1014.91
2019-02-18T08:09:17.927Z,1014.93
2019-02-18T08:10:17.916Z,1014.84
2019-02-18T08:11:17.925Z,1014.81
2019-02-18T08:12:17.904Z,1014.81
2019-02-18T08:13:17.888Z,1014.81
2019-02-18T08:14:17.885Z,1014.81
2019-02-18T08:15:17.867Z,1014.80
2019-02-18T08:16:17.896Z,1014.77
2019-02-18T08:17:17.846Z,1014.81
2019-02-18T08:18:17.837Z,1014.78
2019-02-18T08:19:17.837Z,1014.72
2019-02-18T08:20:17.824Z,1014.75
2019-02-18T08:21:17.827Z,1014.66
2019-02-18T08:22:17.795Z,1014.71
2019-02-18T08:23:17.783Z,1014.71
2019-02-18T08:24:17.777Z,1014.73
2019-02-18T08:25:17.763Z,1014.67
2019-02-18T08:26:17.776Z,1014.73
2019-02-18T08:27:17.742Z,1014.71
2019-02-18T08:28:17.732Z,1014.70
2019-02-18T08:29:17.827Z,1014.72
2019-02-18T08:30:17.708Z,1014.70
2019-02-18T08:31:17.721Z,1014.75
2019-02-18T08:32:17.704Z,1014.74
2019-02-18T08:33:17.680Z,1014.72
2019-02-18T08:34:17.688Z,1014.69
2019-02-18T08:35:17.675Z,1014.73
2019-02-18T08:36:17.673Z,1014.69
2019-02-18T08:37:17.634Z,1014.66
2019-02-18T08:38:17.646Z,1014.65
2019-02-18T08:39:17.619Z,1014.60
2019-02-18T08:40:22.346Z,1014.60
2019-02-18T08:41:18.611Z,1014.68
2019-02-18T08:42:17.581Z,1014.63
2019-02-18T08:43:17.586Z,1014.72
2019-02-18T08:44:17.568Z,1014.67
2019-02-18T08:45:17.548Z,1014.69
2019-02-18T08:46:17.626Z,1014.71
2019-02-18T08:47:17.528Z,1014.68
2019-02-18T08:48:17.519Z,1014.69
2019-02-18T08:49:17.511Z,1014.67
2019-02-18T08:50:17.502Z,1014.69
2019-02-18T08:51:17.515Z,1014.63
2019-02-18T08:52:17.478Z,1014.71
2019-02-18T08:53:17.463Z,1014.69
2019-02-18T08:54:17.463Z,1014.66
2019-02-18T08:55:17.439Z,1014.64
2019-02-18T08:56:17.431Z,1014.68
2019-02-18T08:57:17.433Z,1014.67
2019-02-18T08:58:17.410Z,1014.67
2019-02-18T08:59:17.402Z,1014.72
2019-02-18T09:00:17.390Z,1014.69
2019-02-18T09:01:17.380Z,1014.69
2019-02-18T09:02:17.391Z,1014.64
2019-02-18T09:03:17.353Z,1014.68
2019-02-18T09:04:17.353Z,1014.66
2019-02-18T09:05:17.397Z,1014.67
2019-02-18T09:06:17.315Z,1014.64
2019-02-18T09:07:17.335Z,1014.58
2019-02-18T09:08:17.296Z,1014.60
2019-02-18T09:09:17.296Z,1014.62
2019-02-18T09:10:17.282Z,1014.58
2019-02-18T09:11:17.282Z,1014.61
2019-02-18T09:12:17.254Z,1014.61
2019-02-18T09:13:17.257Z,1014.60
2019-02-18T09:14:17.232Z,1014.68
2019-02-18T09:15:17.232Z,1014.57
2019-02-18T09:16:17.211Z,1014.54
2019-02-18T09:17:17.216Z,1014.53
2019-02-18T09:18:17.190Z,1014.51
2019-02-18T09:19:17.179Z,1014.43
2019-02-18T09:20:17.168Z,1014.45
2019-02-18T09:21:17.155Z,1014.46
2019-02-18T09:22:17.176Z,1014.45
2019-02-18T09:23:17.131Z,1014.46
2019-02-18T09:24:17.124Z,1014.45
2019-02-18T09:25:17.191Z,1014.42
2019-02-18T09:26:17.113Z,1014.43
2019-02-18T09:27:17.242Z,1014.40
2019-02-18T09:28:17.170Z,1014.38
2019-02-18T09:29:17.068Z,1014.47
2019-02-18T09:30:17.059Z,1014.44
2019-02-18T09:31:17.055Z,1014.41
2019-02-18T09:32:17.053Z,1014.39
2019-02-18T09:33:17.044Z,1014.47
2019-02-18T09:34:17.063Z,1014.47
2019-02-18T09:35:17.003Z,1014.42
2019-02-18T09:36:16.999Z,1014.33
2019-02-18T09:37:16.993Z,1014.41
2019-02-18T09:38:24.518Z,1014.39
2019-02-18T09:39:17.958Z,1014.35
2019-02-18T09:40:16.950Z,1014.33
2019-02-18T09:41:16.938Z,1014.37
2019-02-18T09:42:16.931Z,1014.38
2019-02-18T09:43:16.948Z,1014.43
2019-02-18T09:44:16.909Z,1014.39
2019-02-18T09:45:16.898Z,1014.42
2019-02-18T09:46:16.906Z,1014.37
2019-02-18T09:47:16.887Z,1014.50
2019-02-18T09:48:16.884Z,1014.40
2019-02-18T09:49:16.852Z,1014.42
2019-02-18T09:50:16.853Z,1014.41
2019-02-18T09:51:16.834Z,1014.40
2019-02-18T09:52:16.833Z,1014.45
2019-02-18T09:53:16.826Z,1014.46
2019-02-18T09:54:16.799Z,1014.42
2019-02-18T09:55:16.790Z,1014.34
2019-02-18T09:56:16.793Z,1014.35
2019-02-18T09:57:16.773Z,1014.33
2019-02-18T09:58:16.787Z,1014.41
2019-02-18T09:59:16.748Z,1014.38
2019-02-18T10:00:16.737Z,1014.39
2019-02-18T10:01:16.740Z,1014.33
2019-02-18T10:02:16.716Z,1014.30
2019-02-18T10:03:16.720Z,1014.26
2019-02-18T10:04:16.691Z,1014.22
2019-02-18T10:05:16.681Z,1014.21
2019-02-18T10:06:16.680Z,1014.19
2019-02-18T10:07:16.660Z,1014.19
2019-02-18T10:08:16.669Z,1014.18
2019-02-18T10:09:16.638Z,1014.23
2019-02-18T10:10:16.636Z,1014.15
2019-02-18T10:11:16.621Z,1014.18
2019-02-18T10:12:18.723Z,1014.19
2019-02-18T10:13:16.621Z,1014.24
2019-02-18T10:14:16.588Z,1014.17
2019-02-18T10:15:16.573Z,1014.15
2019-02-18T10:16:16.564Z,1014.24
2019-02-18T10:17:16.555Z,1014.15
2019-02-18T10:18:16.570Z,1014.16
2019-02-18T10:19:16.530Z,1014.15
2019-02-18T10:20:16.525Z,1014.15
2019-02-18T10:21:16.511Z,1014.15
2019-02-18T10:22:16.505Z,1014.20
2019-02-18T10:23:16.526Z,1014.15
2019-02-18T10:24:16.493Z,1014.15
2019-02-18T10:25:16.469Z,1014.11
2019-02-18T10:26:16.466Z,1014.12
2019-02-18T10:27:16.451Z,1014.03
2019-02-18T10:28:16.436Z,1014.12
2019-02-18T10:29:16.443Z,1014.08
2019-02-18T10:30:16.415Z,1014.10
2019-02-18T10:31:16.419Z,1014.11
2019-02-18T10:32:16.399Z,1014.15
2019-02-18T10:33:16.388Z,1014.15
2019-02-18T10:34:16.396Z,1014.23
2019-02-18T10:35:16.366Z,1014.17
2019-02-18T10:36:16.353Z,1014.22
2019-02-18T10:37:16.358Z,1014.19
2019-02-18T10:38:16.331Z,1014.13
2019-02-18T10:39:16.343Z,1014.12
2019-02-18T10:40:16.319Z,1014.10
2019-02-18T10:41:16.303Z,1014.09
2019-02-18T10:42:16.287Z,1014.05
2019-02-18T10:43:16.298Z,1014.08
2019-02-18T10:44:16.299Z,1014.06
2019-02-18T10:45:16.259Z,1014.15
2019-02-18T10:46:16.248Z,1014.11
2019-02-18T10:47:16.240Z,1014.04
2019-02-18T10:48:16.226Z,1014.03
2019-02-18T10:49:19.770Z,1014.02
2019-02-18T10:50:17.209Z,1013.96
2019-02-18T10:51:16.194Z,1013.99
2019-02-18T10:52:16.188Z,1014.01
2019-02-18T10:53:16.175Z,1013.97
2019-02-18T10:54:16.182Z,1013.95
2019-02-18T10:55:16.174Z,1013.97
2019-02-18T10:56:16.138Z,1014.05
2019-02-18T10:57:16.128Z,1013.93
2019-02-18T10:58:16.122Z,1014.04
2019-02-18T10:59:16.136Z,1014.04
2019-02-18T11:00:16.097Z,1014.00
2019-02-18T11:01:16.099Z,1013.94
2019-02-18T11:02:16.076Z,1013.95
2019-02-18T11:03:16.068Z,1013.99
2019-02-18T11:04:16.062Z,1013.94
2019-02-18T11:05:16.066Z,1013.94
2019-02-18T11:06:16.032Z,1013.89
2019-02-18T11:07:16.033Z,1013.82
2019-02-18T11:08:16.013Z,1013.87
2019-02-18T11:09:16.000Z,1013.85
2019-02-18T11:10:16.006Z,1013.86
2019-02-18T11:11:17.254Z,1013.85
2019-02-18T11:12:15.970Z,1013.85
2019-02-18T11:13:15.955Z,1013.82
2019-02-18T11:14:15.969Z,1013.77
2019-02-18T11:15:15.964Z,1013.77
2019-02-18T11:16:15.929Z,1013.80
2019-02-18T11:17:15.918Z,1013.76
2019-02-18T11:18:15.912Z,1013.73
2019-02-18T11:19:17.570Z,1013.66
2019-02-18T11:20:15.900Z,1013.61
2019-02-18T11:21:15.892Z,1013.64
2019-02-18T11:22:15.890Z,1013.53
2019-02-18T11:23:15.851Z,1013.56
2019-02-18T11:24:15.844Z,1013.57
2019-02-18T11:25:15.849Z,1013.55
2019-02-18T11:26:15.821Z,1013.58
2019-02-18T11:27:15.810Z,1013.53
2019-02-18T11:28:15.812Z,1013.53
2019-02-18T11:29:15.793Z,1013.55
2019-02-18T11:30:15.812Z,1013.54
2019-02-18T11:31:15.771Z,1013.55
2019-02-18T11:32:15.759Z,1013.54
2019-02-18T11:33:15.747Z,1013.50
2019-02-18T11:34:15.781Z,1013.48
2019-02-18T11:35:15.732Z,1013.44
2019-02-18T11:36:15.738Z,1013.43
2019-02-18T11:37:15.706Z,1013.39
2019-02-18T11:38:15.697Z,1013.35
2019-02-18T11:39:15.690Z,1013.37
2019-02-18T11:40:15.685Z,1013.36
2019-02-18T11:41:15.723Z,1013.39
2019-02-18T11:42:15.653Z,1013.37
2019-02-18T11:43:15.647Z,1013.38
2019-02-18T11:44:15.637Z,1013.32
2019-02-18T11:45:15.625Z,1013.28
2019-02-18T11:46:15.644Z,1013.30
2019-02-18T11:47:15.604Z,1013.21
2019-02-18T11:48:15.593Z,1013.18
2019-02-18T11:49:15.597Z,1013.04
2019-02-18T11:50:15.571Z,1013.00
2019-02-18T11:51:15.580Z,1012.90
2019-02-18T11:52:15.564Z,1012.88
2019-02-18T11:53:15.621Z,1012.88
2019-02-18T11:54:15.538Z,1012.80
2019-02-18T11:55:15.519Z,1012.87
2019-02-18T11:56:15.533Z,1012.87
2019-02-18T11:57:15.499Z,1012.95
2019-02-18T11:58:15.503Z,1013.00
2019-02-18T11:59:24.107Z,1013.09
2019-02-18T12:00:16.465Z,1013.04
2019-02-18T12:01:15.474Z,1013.03
2019-02-18T12:02:15.446Z,1013.09
2019-02-18T12:03:15.432Z,1013.14
2019-02-18T12:04:15.435Z,1013.02
2019-02-18T12:05:15.420Z,1013.05
2019-02-18T12:06:15.419Z,1013.01
2019-02-18T12:07:15.395Z,1012.99
2019-02-18T12:08:15.385Z,1013.03
2019-02-18T12:09:17.761Z,1012.99
2019-02-18T12:10:15.372Z,1012.93
2019-02-18T12:11:15.368Z,1012.96
2019-02-18T12:12:15.339Z,1012.90
2019-02-18T12:13:15.331Z,1012.91
2019-02-18T12:14:15.319Z,1012.87
2019-02-18T12:15:15.309Z,1012.85
2019-02-18T12:16:15.330Z,1012.84
2019-02-18T12:17:20.574Z,1012.83
2019-02-18T12:18:16.282Z,1012.81
2019-02-18T12:19:15.266Z,1012.72
2019-02-18T12:20:15.258Z,1012.70
2019-02-18T12:21:15.264Z,1012.74
2019-02-18T12:22:15.248Z,1012.73
2019-02-18T12:23:15.229Z,1012.63
2019-02-18T12:24:15.220Z,1012.65
2019-02-18T12:25:15.214Z,1012.59
2019-02-18T12:26:15.226Z,1012.52
2019-02-18T12:27:15.187Z,1012.49
2019-02-18T12:28:15.187Z,1012.42
2019-02-18T12:29:15.165Z,1012.24
2019-02-18T12:30:15.160Z,1012.27
2019-02-18T12:31:15.149Z,1012.41
2019-02-18T12:32:15.153Z,1012.42
2019-02-18T12:33:15.125Z,1012.35
2019-02-18T12:34:15.124Z,1012.28
2019-02-18T12:35:15.108Z,1012.27
2019-02-18T12:36:15.095Z,1012.31
2019-02-18T12:37:15.097Z,1012.23
2019-02-18T12:38:17.350Z,1012.19
2019-02-18T12:39:15.063Z,1012.13
2019-02-18T12:40:15.140Z,1012.17
2019-02-18T12:41:15.049Z,1012.06
2019-02-18T12:42:15.059Z,1012.08
2019-02-18T12:43:15.021Z,1012.03
2019-02-18T12:44:15.011Z,1011.96
2019-02-18T12:45:14.998Z,1011.97
2019-02-18T12:46:16.035Z,1012.04
2019-02-18T12:47:15.011Z,1011.94
2019-02-18T12:48:14.966Z,1011.94
2019-02-18T12:49:14.957Z,1011.90
2019-02-18T12:50:14.952Z,1011.92
2019-02-18T12:51:14.936Z,1011.86
2019-02-18T12:52:14.942Z,1011.92
2019-02-18T12:53:14.926Z,1011.83
2019-02-18T12:54:14.903Z,1011.78
2019-02-18T12:55:15.207Z,1011.80
2019-02-18T12:56:14.881Z,1011.76
2019-02-18T12:57:14.890Z,1011.79
2019-02-18T12:58:14.859Z,1011.71
2019-02-18T12:59:14.863Z,1011.71
2019-02-18T13:00:14.956Z,1011.68
2019-02-18T13:01:14.833Z,1011.71
2019-02-18T13:02:14.853Z,1011.60
2019-02-18T13:03:14.807Z,1011.58
2019-02-18T13:04:14.795Z,1011.62
2019-02-18T13:05:14.795Z,1011.65
2019-02-18T13:06:14.781Z,1011.59
2019-02-18T13:07:14.766Z,1011.55
2019-02-18T13:08:14.773Z,1011.56
2019-02-18T13:09:14.742Z,1011.55
2019-02-18T13:10:14.732Z,1011.57
2019-02-18T13:11:14.748Z,1011.52
2019-02-18T13:12:14.708Z,1011.49
2019-02-18T13:13:14.713Z,1011.51
2019-02-18T13:14:14.685Z,1011.45
2019-02-18T13:15:14.675Z,1011.38
2019-02-18T13:16:14.668Z,1011.39
2019-02-18T13:17:14.672Z,1011.37
2019-02-18T13:18:14.667Z,1011.36
2019-02-18T13:19:14.633Z,1011.29
2019-02-18T13:20:14.623Z,1011.37
2019-02-18T13:21:14.613Z,1011.33
2019-02-18T13:22:14.604Z,1011.29
2019-02-18T13:23:14.615Z,1011.34
2019-02-18T13:24:14.595Z,1011.31
2019-02-18T13:25:14.578Z,1011.32
2019-02-18T13:26:14.562Z,1011.28
2019-02-18T13:27:14.550Z,1011.29
2019-02-18T13:28:14.562Z,1011.26
2019-02-18T13:29:14.537Z,1011.24
2019-02-18T13:30:14.532Z,1011.20
2019-02-18T13:31:14.514Z,1011.20
2019-02-18T13:32:14.544Z,1011.13
2019-02-18T13:33:14.507Z,1011.15
2019-02-18T13:34:14.480Z,1011.18
2019-02-18T13:35:14.467Z,1011.18
2019-02-18T13:36:14.468Z,1011.10
2019-02-18T13:37:14.452Z,1011.11
2019-02-18T13:38:14.459Z,1011.09
2019-02-18T13:39:14.430Z,1011.07
2019-02-18T13:40:14.413Z,1011.04
2019-02-18T13:41:14.401Z,1011.01
2019-02-18T13:42:14.408Z,1010.97
2019-02-18T13:43:14.404Z,1011.01
2019-02-18T13:44:14.372Z,1010.91
2019-02-18T13:45:14.362Z,1010.92
2019-02-18T13:46:14.348Z,1010.84
2019-02-18T13:47:14.337Z,1010.88
2019-02-18T13:48:14.361Z,1010.87
2019-02-18T13:49:14.319Z,1010.91
2019-02-18T13:50:14.308Z,1010.91
2019-02-18T13:51:14.297Z,1010.91
2019-02-18T13:52:14.286Z,1010.95
2019-02-18T13:53:14.295Z,1010.93
2019-02-18T13:54:14.293Z,1010.95
2019-02-18T13:55:14.263Z,1010.95
2019-02-18T13:56:14.243Z,1010.98
2019-02-18T13:57:14.234Z,1010.94
2019-02-18T13:58:14.239Z,1010.97
2019-02-18T13:59:14.210Z,1010.94
2019-02-18T14:00:14.216Z,1010.89
2019-02-18T14:01:14.197Z,1010.91
2019-02-18T14:02:14.184Z,1010.93
2019-02-18T14:03:14.189Z,1011.00
2019-02-18T14:04:14.159Z,1010.95
2019-02-18T14:05:14.148Z,1011.08
2019-02-18T14:06:14.164Z,1010.96
2019-02-18T14:07:14.132Z,1011.03
2019-02-18T14:08:14.133Z,1010.99
2019-02-18T14:09:14.110Z,1011.02
2019-02-18T14:10:14.094Z,1010.99
2019-02-18T14:11:14.083Z,1010.98
2019-02-18T14:12:16.045Z,1011.00
2019-02-18T14:13:14.084Z,1010.93
2019-02-18T14:14:14.054Z,1010.89
2019-02-18T14:15:14.041Z,1010.87
2019-02-18T14:16:14.040Z,1010.95
2019-02-18T14:17:14.018Z,1010.96
2019-02-18T14:18:14.041Z,1010.86
2019-02-18T14:19:13.998Z,1010.94
2019-02-18T14:20:14.273Z,1010.83
2019-02-18T14:21:13.980Z,1010.81
2019-02-18T14:22:13.966Z,1010.76
2019-02-18T14:23:15.846Z,1010.81
2019-02-18T14:24:13.950Z,1010.82
2019-02-18T14:25:13.944Z,1010.81
2019-02-18T14:26:13.926Z,1010.78
2019-02-18T14:27:13.913Z,1010.75
2019-02-18T14:28:13.921Z,1010.75
2019-02-18T14:29:13.891Z,1010.81
2019-02-18T14:30:13.882Z,1010.72
2019-02-18T14:31:13.888Z,1010.70
2019-02-18T14:32:13.860Z,1010.69
2019-02-18T14:33:13.867Z,1010.63
2019-02-18T14:34:13.839Z,1010.71
2019-02-18T14:35:13.827Z,1010.65
2019-02-18T14:36:13.823Z,1010.68
2019-02-18T14:37:13.827Z,1010.57
2019-02-18T14:38:13.815Z,1010.68
2019-02-18T14:39:13.787Z,1010.59
2019-02-18T14:40:13.776Z,1010.58
2019-02-18T14:41:13.766Z,1010.67
2019-02-18T14:42:13.761Z,1010.61
2019-02-18T14:43:13.786Z,1010.63
2019-02-18T14:44:13.741Z,1010.58
2019-02-18T14:45:13.722Z,1010.67
2019-02-18T14:46:13.713Z,1010.59
2019-02-18T14:47:13.706Z,1010.61
2019-02-18T14:48:13.699Z,1010.62
2019-02-18T14:49:13.697Z,1010.67
2019-02-18T14:50:13.669Z,1010.59
2019-02-18T14:51:13.659Z,1010.70
2019-02-18T14:52:13.646Z,1010.72
2019-02-18T14:53:13.641Z,1010.69
2019-02-18T14:54:13.659Z,1010.67
2019-02-18T14:55:13.614Z,1010.72
2019-02-18T14:56:13.605Z,1010.68
2019-02-18T14:57:13.592Z,1010.79
2019-02-18T14:58:13.581Z,1010.75
2019-02-18T14:59:13.588Z,1010.78
2019-02-18T15:00:13.578Z,1010.78
2019-02-18T15:01:13.550Z,1010.86
2019-02-18T15:02:13.538Z,1010.88
2019-02-18T15:03:13.526Z,1010.80
2019-02-18T15:04:13.534Z,1010.79
2019-02-18T15:05:13.512Z,1010.86
2019-02-18T15:06:13.516Z,1010.82
2019-02-18T15:07:13.486Z,1010.84
2019-02-18T15:08:13.477Z,1010.84
2019-02-18T15:09:13.480Z,1010.87
2019-02-18T15:10:13.453Z,1010.80
2019-02-18T15:11:13.452Z,1010.71
2019-02-18T15:12:13.441Z,1010.85
2019-02-18T15:13:13.422Z,1010.78
2019-02-18T15:14:13.425Z,1010.74
2019-02-18T15:15:13.397Z,1010.78
2019-02-18T15:16:13.388Z,1010.79
2019-02-18T15:17:13.378Z,1010.81
2019-02-18T15:18:13.370Z,1010.81
2019-02-18T15:19:13.377Z,1010.78
2019-02-18T15:20:13.348Z,1010.75
2019-02-18T15:21:13.341Z,1010.75
2019-02-18T15:22:13.324Z,1010.85
2019-02-18T15:23:13.315Z,1010.83
2019-02-18T15:24:13.332Z,1010.83
2019-02-18T15:25:13.297Z,1010.83
2019-02-18T15:26:13.280Z,1010.83
2019-02-18T15:27:13.280Z,1010.82
2019-02-18T15:28:13.258Z,1010.81
2019-02-18T15:29:13.275Z,1010.79
2019-02-18T15:30:13.277Z,1010.81
2019-02-18T15:31:13.264Z,1010.84
2019-02-18T15:32:13.220Z,1010.83
2019-02-18T15:33:13.205Z,1010.80
2019-02-18T15:34:13.312Z,1010.80
2019-02-18T15:35:13.198Z,1010.86
2019-02-18T15:36:13.186Z,1010.88
2019-02-18T15:37:13.164Z,1010.81
2019-02-18T15:38:13.153Z,1010.78
2019-02-18T15:39:13.168Z,1010.83
2019-02-18T15:40:13.137Z,1010.89
2019-02-18T15:41:13.138Z,1010.82
2019-02-18T15:42:13.118Z,1010.94
2019-02-18T15:43:13.097Z,1010.85
2019-02-18T15:44:13.087Z,1010.92
2019-02-18T15:45:13.093Z,1010.88
2019-02-18T15:46:13.064Z,1010.91
2019-02-18T15:47:13.067Z,1010.93
2019-02-18T15:48:13.055Z,1010.92
2019-02-18T15:49:13.033Z,1010.83
2019-02-18T15:50:13.041Z,1010.94
2019-02-18T15:51:13.011Z,1011.02
2019-02-18T15:52:13.001Z,1010.90
2019-02-18T15:53:13.002Z,1010.87
2019-02-18T15:54:12.988Z,1010.95
2019-02-18T15:55:12.995Z,1010.96
2019-02-18T15:56:12.957Z,1011.00
2019-02-18T15:57:12.946Z,1011.06
2019-02-18T15:58:12.935Z,1010.98
2019-02-18T15:59:12.932Z,1010.92
2019-02-18T16:00:12.944Z,1010.88
2019-02-18T16:01:12.901Z,1010.89
2019-02-18T16:02:12.894Z,1010.95
2019-02-18T16:03:12.882Z,1010.85
2019-02-18T16:04:12.870Z,1010.92
2019-02-18T16:05:12.877Z,1010.85
2019-02-18T16:06:12.936Z,1010.92
2019-02-18T16:07:12.841Z,1010.90
2019-02-18T16:08:12.837Z,1010.87
2019-02-18T16:09:12.816Z,1010.81
2019-02-18T16:10:12.822Z,1010.85
2019-02-18T16:11:12.795Z,1010.84
2019-02-18T16:12:12.802Z,1010.88
2019-02-18T16:13:12.773Z,1010.89
2019-02-18T16:14:12.766Z,1010.83
2019-02-18T16:15:12.767Z,1010.83
2019-02-18T16:16:12.741Z,1010.88
2019-02-18T16:17:12.732Z,1010.83
2019-02-18T16:18:12.728Z,1010.81
2019-02-18T16:19:12.718Z,1010.81
2019-02-18T16:20:12.719Z,1010.84
2019-02-18T16:21:12.691Z,1010.80
2019-02-18T16:22:12.677Z,1010.81
2019-02-18T16:23:12.665Z,1010.75
2019-02-18T16:24:19.732Z,1010.95
2019-02-18T16:25:13.739Z,1010.76
2019-02-18T16:26:12.635Z,1010.87
2019-02-18T16:27:12.632Z,1010.77
2019-02-18T16:28:12.615Z,1010.81
2019-02-18T16:29:12.602Z,1010.84
2019-02-18T16:30:12.592Z,1010.83
2019-02-18T16:31:12.603Z,1010.84
2019-02-18T16:32:12.572Z,1010.78
2019-02-18T16:33:12.557Z,1010.79
2019-02-18T16:34:12.559Z,1010.75
2019-02-18T16:35:12.542Z,1010.82
2019-02-18T16:36:12.545Z,1010.79
2019-02-18T16:37:12.516Z,1010.81
2019-02-18T16:38:12.503Z,1010.76
2019-02-18T16:39:12.494Z,1010.82
2019-02-18T16:40:12.487Z,1010.84
2019-02-18T16:41:12.500Z,1010.76
2019-02-18T16:42:12.465Z,1010.77
2019-02-18T16:43:12.451Z,1010.74
2019-02-18T16:44:12.448Z,1010.76
2019-02-18T16:45:12.429Z,1010.76
2019-02-18T16:46:12.437Z,1010.75
2019-02-18T16:47:12.420Z,1010.79
2019-02-18T16:48:12.397Z,1010.81
2019-02-18T16:49:12.387Z,1010.75
2019-02-18T16:50:12.380Z,1010.77
2019-02-18T16:51:12.389Z,1010.79
2019-02-18T16:52:12.611Z,1010.85
2019-02-18T16:53:12.346Z,1010.87
2019-02-18T16:54:12.351Z,1010.84
2019-02-18T16:55:12.338Z,1010.95
2019-02-18T16:56:12.336Z,1010.90
2019-02-18T16:57:12.305Z,1010.81
2019-02-18T16:58:12.291Z,1010.84
2019-02-18T16:59:12.282Z,1010.85
2019-02-18T17:00:12.313Z,1010.87
2019-02-18T17:01:12.255Z,1010.84
2019-02-18T17:02:12.263Z,1010.87
2019-02-18T17:03:12.237Z,1010.87
2019-02-18T17:04:12.225Z,1010.93
2019-02-18T17:05:12.223Z,1010.93
2019-02-18T17:06:12.215Z,1010.96
2019-02-18T17:07:12.212Z,1010.93
2019-02-18T17:08:12.181Z,1010.97
2019-02-18T17:09:12.168Z,1011.00
2019-02-18T17:10:12.161Z,1010.98
2019-02-18T17:11:12.153Z,1010.96
2019-02-18T17:12:12.174Z,1011.01
2019-02-18T17:13:12.127Z,1010.98
2019-02-18T17:14:12.115Z,1010.98
2019-02-18T17:15:12.107Z,1011.00
2019-02-18T17:16:12.096Z,1011.01
2019-02-18T17:17:12.103Z,1011.06
2019-02-18T17:18:12.075Z,1011.04
2019-02-18T17:19:12.073Z,1011.03
2019-02-18T17:20:12.054Z,1011.00
2019-02-18T17:21:12.045Z,1011.01
2019-02-18T17:22:12.049Z,1011.05
2019-02-18T17:23:12.019Z,1011.01
2019-02-18T17:24:12.017Z,1010.97
2019-02-18T17:25:12.002Z,1011.09
2019-02-18T17:26:11.983Z,1010.97
2019-02-18T17:27:11.999Z,1011.00
2019-02-18T17:28:11.966Z,1010.98
2019-02-18T17:29:11.954Z,1010.99
2019-02-18T17:30:11.946Z,1010.96
2019-02-18T17:31:11.940Z,1011.00
2019-02-18T17:32:11.934Z,1010.97
2019-02-18T17:33:11.912Z,1011.07
2019-02-18T17:34:11.895Z,1011.08
2019-02-18T17:35:12.133Z,1011.03
2019-02-18T17:36:11.890Z,1011.04
2019-02-18T17:37:11.895Z,1011.10
2019-02-18T17:38:11.851Z,1011.07
2019-02-18T17:39:11.846Z,1011.09
2019-02-18T17:40:11.837Z,1011.07
2019-02-18T17:41:11.821Z,1011.09
2019-02-18T17:42:11.808Z,1011.10
2019-02-18T17:43:16.415Z,1011.08
2019-02-18T17:44:19.816Z,1011.06
2019-02-18T17:45:12.772Z,1011.00
2019-02-18T17:46:11.780Z,1011.03
2019-02-18T17:47:11.755Z,1010.98
2019-02-18T17:48:11.763Z,1010.99
2019-02-18T17:49:11.730Z,1010.97
2019-02-18T17:50:11.719Z,1010.97
2019-02-18T17:51:11.708Z,1010.96
2019-02-18T17:52:11.717Z,1010.99
2019-02-18T17:53:11.716Z,1011.05
2019-02-18T17:54:11.682Z,1011.05
2019-02-18T17:55:11.668Z,1011.04
2019-02-18T17:56:11.655Z,1011.03
2019-02-18T17:57:11.641Z,1011.02
2019-02-18T17:58:11.661Z,1011.02
2019-02-18T17:59:11.621Z,1011.06
2019-02-18T18:00:11.610Z,1011.00
2019-02-18T18:01:11.597Z,1011.04
2019-02-18T18:02:11.585Z,1011.03
2019-02-18T18:03:11.595Z,1011.05
2019-02-18T18:04:11.565Z,1011.13
2019-02-18T18:05:11.555Z,1011.07
2019-02-18T18:06:11.560Z,1011.09
2019-02-18T18:07:11.534Z,1011.09
2019-02-18T18:08:11.536Z,1011.07
2019-02-18T18:09:11.508Z,1011.07
2019-02-18T18:10:11.504Z,1011.08
2019-02-18T18:11:11.489Z,1011.08
2019-02-18T18:12:11.476Z,1011.10
2019-02-18T18:13:11.622Z,1011.11
2019-02-18T18:14:11.458Z,1011.10
2019-02-18T18:15:11.447Z,1011.12
2019-02-18T18:16:11.434Z,1011.12
2019-02-18T18:17:11.429Z,1011.08
2019-02-18T18:18:11.411Z,1011.09
2019-02-18T18:19:11.414Z,1011.10
2019-02-18T18:20:11.409Z,1011.14
2019-02-18T18:21:11.378Z,1011.07
2019-02-18T18:22:11.376Z,1011.10
2019-02-18T18:23:11.352Z,1011.08
2019-02-18T18:24:11.359Z,1011.06
2019-02-18T18:25:11.331Z,1011.06
2019-02-18T18:26:11.321Z,1011.08
2019-02-18T18:27:11.323Z,1011.12
2019-02-18T18:28:11.300Z,1011.13
2019-02-18T18:29:11.303Z,1011.11
2019-02-18T18:30:11.275Z,1011.10